createdAt,value
2022-12-23T00:02:00.381Z,100115.72
2022-12-23T00:04:28.525Z,100111.28
2022-12-23T00:06:58.291Z,100110.38
2022-12-23T00:09:26.319Z,100110.34
2022-12-23T00:12:08.153Z,100112.13
2022-12-23T00:14:53.525Z,100114.88
2022-12-23T00:17:22.996Z,100113.16
2022-12-23T00:19:51.376Z,100114.91
2022-12-23T00:22:40.979Z,100110.41
2022-12-23T00:25:09.756Z,100106.84
2022-12-23T00:27:38.005Z,100114.88
2022-12-23T00:30:08.181Z,100120.16
2022-12-23T00:32:36.415Z,100121.94
2022-12-23T00:35:04.551Z,100116.59
2022-12-23T00:37:34.085Z,100116.63
2022-12-23T00:40:19.691Z,100109.50
2022-12-23T00:42:59.705Z,100109.59
2022-12-23T00:45:27.843Z,100113.16
2022-12-23T00:48:13.236Z,100122.91
2022-12-23T00:50:44.077Z,100129.25
2022-12-23T00:53:14.067Z,100125.84
2022-12-23T00:55:46.311Z,100131.19
2022-12-23T00:58:23.040Z,100134.81
2022-12-23T01:01:12.570Z,100133.91
2022-12-23T01:03:58.294Z,100136.53
2022-12-23T01:06:37.307Z,100137.41
2022-12-23T01:09:11.000Z,100147.22
2022-12-23T01:11:43.506Z,100140.06
2022-12-23T01:14:17.744Z,100153.41
2022-12-23T01:16:46.913Z,100156.06
2022-12-23T01:20:03.372Z,100153.44
2022-12-23T01:22:07.513Z,100156.97
2022-12-23T01:24:42.128Z,100162.28
2022-12-23T01:27:14.303Z,100161.38
2022-12-23T01:29:43.419Z,100163.16
2022-12-23T01:32:22.112Z,100166.75
2022-12-23T01:35:41.183Z,100166.72
2022-12-23T01:38:17.223Z,100172.97
2022-12-23T01:44:11.024Z,100169.41
2022-12-23T01:47:09.233Z,100180.06
2022-12-23T01:49:50.034Z,100180.03
2022-12-23T01:52:33.092Z,100182.66
2022-12-23T01:55:21.636Z,100179.06
2022-12-23T01:58:28.775Z,100174.59
2022-12-23T02:01:38.700Z,100178.13
2022-12-23T02:04:17.820Z,100178.16
2022-12-23T02:08:31.046Z,100182.59
2022-12-23T02:10:48.363Z,100190.69
2022-12-23T02:13:28.373Z,100189.81
2022-12-23T02:16:20.174Z,100184.41
2022-12-23T02:19:15.177Z,100179.97
2022-12-23T02:22:20.822Z,100189.75
2022-12-23T02:25:39.143Z,100187.00
2022-12-23T02:28:32.324Z,100186.97
2022-12-23T02:31:28.010Z,100188.81
2022-12-23T02:34:08.070Z,100201.28
2022-12-23T02:36:47.101Z,100207.56
2022-12-23T02:39:33.723Z,100211.09
2022-12-23T02:42:09.386Z,100217.34
2022-12-23T02:44:46.244Z,100229.91
2022-12-23T02:47:25.171Z,100225.50
2022-12-23T02:50:08.027Z,100229.06
2022-12-23T02:52:40.387Z,100236.19
2022-12-23T02:55:15.255Z,100240.63
2022-12-23T02:57:48.171Z,100235.19
2022-12-23T03:00:29.008Z,100239.75
2022-12-23T03:02:59.427Z,100241.47
2022-12-23T03:05:30.236Z,100241.47
2022-12-23T03:08:06.092Z,100242.34
2022-12-23T03:10:43.146Z,100248.59
2022-12-23T03:13:22.748Z,100252.19
2022-12-23T03:16:06.639Z,100259.28
2022-12-23T03:18:55.385Z,100267.28
2022-12-23T03:21:38.268Z,100270.00
2022-12-23T03:24:15.747Z,100277.13
2022-12-23T03:27:00.201Z,100283.34
2022-12-23T03:30:52.342Z,100284.25
2022-12-23T03:34:42.843Z,100276.25
2022-12-23T03:37:41.449Z,100276.25
2022-12-23T03:44:17.727Z,100263.81
2022-12-23T03:47:19.399Z,100276.25
2022-12-23T03:54:14.759Z,100270.81
2022-12-23T03:57:11.100Z,100267.19
2022-12-23T04:00:20.443Z,100262.72
2022-12-23T04:03:15.616Z,100263.59
2022-12-23T04:06:18.943Z,100260.91
2022-12-23T04:09:48.379Z,100265.38
2022-12-23T04:13:14.329Z,100274.31
2022-12-23T04:19:22.890Z,100278.78
2022-12-23T04:22:20.643Z,100273.47
2022-12-23T04:25:27.073Z,100268.16
2022-12-23T04:29:30.951Z,100266.31
2022-12-23T04:49:09.085Z,100286.94
2022-12-23T04:52:36.184Z,100287.81
2022-12-23T04:59:38.154Z,100290.44
2022-12-23T05:13:46.648Z,100303.72
2022-12-23T05:16:25.556Z,100306.44
2022-12-23T05:19:46.270Z,100296.69
2022-12-23T05:23:02.485Z,100297.63
2022-12-23T05:26:15.292Z,100282.53
2022-12-23T05:29:54.300Z,100289.59
2022-12-23T05:34:06.363Z,100286.06
2022-12-23T05:43:28.878Z,100295.75
2022-12-23T05:50:32.315Z,100321.53
2022-12-23T05:53:40.830Z,100324.34
2022-12-23T05:56:37.000Z,100334.09
2022-12-23T05:59:53.683Z,100329.66
2022-12-23T06:03:05.717Z,100330.56
2022-12-23T06:15:51.954Z,100349.31
2022-12-23T06:18:19.923Z,100351.91
2022-12-23T06:20:48.559Z,100357.19
2022-12-23T06:23:16.350Z,100360.78
2022-12-23T06:25:44.207Z,100352.75
2022-12-23T06:28:11.993Z,100352.75
2022-12-23T06:30:40.031Z,100348.31
2022-12-23T06:33:09.285Z,100351.88
2022-12-23T06:35:37.072Z,100354.53
2022-12-23T06:38:10.319Z,100340.25
2022-12-23T06:40:40.185Z,100342.97
2022-12-23T06:43:08.179Z,100343.78
2022-12-23T06:45:35.973Z,100340.19
2022-12-23T06:48:03.874Z,100317.94
2022-12-23T06:50:33.312Z,100328.63
2022-12-23T06:53:01.575Z,100323.28
2022-12-23T06:55:29.520Z,100325.03
2022-12-23T06:57:57.353Z,100330.38
2022-12-23T07:00:25.393Z,100324.22
2022-12-23T07:02:54.653Z,100329.59
2022-12-23T07:05:22.643Z,100338.56
2022-12-23T07:07:51.857Z,100338.56
2022-12-23T07:10:19.672Z,100343.94
2022-12-23T07:12:50.853Z,100349.34
2022-12-23T07:15:19.363Z,100353.75
2022-12-23T07:17:47.272Z,100366.22
2022-12-23T07:20:15.314Z,100370.66
2022-12-23T07:22:43.121Z,100384.91
2022-12-23T07:25:12.681Z,100390.25
2022-12-23T07:27:40.713Z,100400.09
2022-12-23T07:30:09.771Z,100400.97
2022-12-23T07:32:37.494Z,100411.66
2022-12-23T07:35:06.006Z,100418.81
2022-12-23T07:37:33.792Z,100423.25
2022-12-23T07:40:08.034Z,100425.94
2022-12-23T07:42:46.878Z,100409.03
2022-12-23T07:45:15.066Z,100416.16
2022-12-23T07:47:43.027Z,100413.53
2022-12-23T07:50:11.257Z,100422.41
2022-12-23T07:52:39.494Z,100414.44
2022-12-23T07:55:07.982Z,100417.13
2022-12-23T07:57:38.242Z,100405.56
2022-12-23T08:00:08.209Z,100403.78
2022-12-23T08:02:36.073Z,100411.78
2022-12-23T08:05:04.005Z,100408.22
2022-12-23T08:07:31.721Z,100393.91
2022-12-23T08:09:59.566Z,100394.78
2022-12-23T08:12:27.655Z,100405.47
2022-12-23T08:14:56.843Z,100393.91
2022-12-23T08:17:27.392Z,100390.34
2022-12-23T08:19:55.689Z,100399.22
2022-12-23T08:22:24.675Z,100403.66
2022-12-23T08:24:53.430Z,100406.31
2022-12-23T08:27:21.398Z,100400.97
2022-12-23T08:29:49.292Z,100400.19
2022-12-23T08:32:18.491Z,100401.09
2022-12-23T08:34:46.406Z,100397.53
2022-12-23T08:37:14.601Z,100398.44
2022-12-23T08:39:43.708Z,100399.28
2022-12-23T08:42:11.506Z,100393.03
2022-12-23T08:44:39.338Z,100387.63
2022-12-23T08:47:07.549Z,100389.41
2022-12-23T08:49:36.916Z,100397.44
2022-12-23T08:52:04.841Z,100392.13
2022-12-23T08:54:32.676Z,100397.50
2022-12-23T08:57:00.884Z,100391.22
2022-12-23T08:59:28.945Z,100392.94
2022-12-23T09:01:59.748Z,100382.22
2022-12-23T09:04:27.912Z,100383.97
2022-12-23T09:06:57.391Z,100385.75
2022-12-23T09:09:25.529Z,100373.25
2022-12-23T09:11:53.384Z,100373.31
2022-12-23T09:14:21.748Z,100375.13
2022-12-23T09:16:52.153Z,100384.91
2022-12-23T09:19:20.516Z,100383.16
2022-12-23T09:21:48.902Z,100392.91
2022-12-23T09:24:18.100Z,100377.78
2022-12-23T09:26:46.125Z,100388.50
2022-12-23T09:29:13.974Z,100379.59
2022-12-23T09:31:41.876Z,100378.72
2022-12-23T09:34:12.463Z,100368.00
2022-12-23T09:36:40.522Z,100361.72
2022-12-23T09:39:08.355Z,100357.19
2022-12-23T09:41:53.438Z,100354.50
2022-12-23T09:44:43.171Z,100358.03
2022-12-23T09:47:17.427Z,100353.59
2022-12-23T09:49:49.841Z,100362.53
2022-12-23T09:52:20.418Z,100369.69
2022-12-23T09:54:51.923Z,100368.78
2022-12-23T09:57:25.237Z,100366.09
2022-12-23T10:00:03.830Z,100363.41
2022-12-23T10:02:55.233Z,100358.06
2022-12-23T10:05:31.780Z,100352.69
2022-12-23T10:08:05.011Z,100341.06
2022-12-23T10:10:37.591Z,100338.41
2022-12-23T10:13:12.737Z,100327.69
2022-12-23T10:15:44.517Z,100322.31
2022-12-23T10:18:19.173Z,100319.63
2022-12-23T10:20:52.236Z,100306.22
2022-12-23T10:23:28.838Z,100307.94
2022-12-23T10:25:57.157Z,100284.81
2022-12-23T10:28:30.058Z,100286.56
2022-12-23T10:31:38.605Z,100277.63
2022-12-23T10:34:06.547Z,100276.72
2022-12-23T10:36:42.825Z,100268.63
2022-12-23T10:39:22.514Z,100269.47
2022-12-23T10:42:02.202Z,100270.31
2022-12-23T10:45:10.586Z,100271.19
2022-12-23T10:47:49.176Z,100276.50
2022-12-23T10:50:39.250Z,100271.94
2022-12-23T10:53:13.479Z,100277.25
2022-12-23T10:55:41.554Z,100266.59
2022-12-23T10:58:14.696Z,100259.41
2022-12-23T11:00:47.617Z,100250.50
2022-12-23T11:03:25.546Z,100252.28
2022-12-23T11:05:55.066Z,100245.16
2022-12-23T11:08:24.615Z,100239.88
2022-12-23T11:10:52.493Z,100230.91
2022-12-23T11:13:37.969Z,100228.25
2022-12-23T11:16:25.356Z,100221.16
2022-12-23T11:18:56.345Z,100231.81
2022-12-23T11:21:24.423Z,100230.00
2022-12-23T11:24:35.427Z,100225.59
2022-12-23T11:27:12.629Z,100213.97
2022-12-23T11:29:45.208Z,100210.31
2022-12-23T11:32:20.049Z,100197.81
2022-12-23T11:34:49.296Z,100200.41
2022-12-23T11:37:33.371Z,100200.41
2022-12-23T11:40:01.706Z,100198.63
2022-12-23T11:42:31.540Z,100190.66
2022-12-23T11:45:01.014Z,100182.63
2022-12-23T11:47:37.058Z,100170.16
2022-12-23T11:50:27.754Z,100157.66
2022-12-23T11:53:01.947Z,100154.97
2022-12-23T11:55:32.959Z,100143.34
2022-12-23T11:58:02.793Z,100132.66
2022-12-23T12:00:42.035Z,100134.50
2022-12-23T12:03:20.233Z,100121.09
2022-12-23T12:05:52.685Z,100114.81
2022-12-23T12:08:23.485Z,100110.34
2022-12-23T12:10:54.054Z,100106.75
2022-12-23T12:13:27.285Z,100107.66
2022-12-23T12:16:09.034Z,100103.31
2022-12-23T12:18:41.041Z,100103.34
2022-12-23T12:21:13.614Z,100097.19
2022-12-23T12:23:47.570Z,100087.41
2022-12-23T12:26:24.386Z,100082.94
2022-12-23T12:28:58.269Z,100081.22
2022-12-23T12:31:32.625Z,100086.59
2022-12-23T12:34:05.859Z,100073.25
2022-12-23T12:36:43.262Z,100070.53
2022-12-23T12:39:19.045Z,100072.25
2022-12-23T12:41:58.503Z,100065.13
2022-12-23T12:44:39.193Z,100058.84
2022-12-23T12:47:36.344Z,100053.53
2022-12-23T12:50:09.443Z,100046.50
2022-12-23T12:52:42.558Z,100043.78
2022-12-23T12:55:20.000Z,100034.91
2022-12-23T12:58:14.494Z,100034.97
2022-12-23T13:01:03.460Z,100027.91
2022-12-23T13:03:59.818Z,100018.19
2022-12-23T13:06:46.570Z,100006.63
2022-12-23T13:09:30.974Z,99995.06
2022-12-23T13:12:35.677Z,99987.94
2022-12-23T13:15:18.124Z,99975.34
2022-12-23T13:19:10.006Z,99962.75
2022-12-23T13:22:20.512Z,99954.56
2022-12-23T13:24:49.114Z,99966.09
2022-12-23T13:27:44.207Z,99951.81
2022-12-23T13:30:44.205Z,99954.44
2022-12-23T13:33:40.667Z,99954.44
2022-12-23T13:36:35.827Z,99941.16
2022-12-23T13:39:18.034Z,99934.94
2022-12-23T13:41:51.105Z,99926.97
2022-12-23T13:48:13.122Z,99906.34
2022-12-23T13:50:50.175Z,99897.44
2022-12-23T13:53:25.966Z,99900.13
2022-12-23T13:56:04.026Z,99885.97
2022-12-23T13:58:33.240Z,99876.19
2022-12-23T14:01:22.698Z,99872.66
2022-12-23T14:03:51.906Z,99858.50
2022-12-23T14:06:44.431Z,99861.13
2022-12-23T14:09:16.436Z,99863.81
2022-12-23T14:11:45.479Z,99863.00
2022-12-23T14:14:22.079Z,99860.38
2022-12-23T14:17:02.430Z,99848.84
2022-12-23T14:19:52.982Z,99837.28
2022-12-23T14:22:41.496Z,99827.59
2022-12-23T14:25:29.925Z,99823.22
2022-12-23T14:28:08.973Z,99822.47
2022-12-23T14:30:38.906Z,99824.28
2022-12-23T14:33:17.146Z,99818.97
2022-12-23T14:35:53.637Z,99821.63
2022-12-23T14:38:33.303Z,99793.19
2022-12-23T14:41:25.938Z,99792.41
2022-12-23T14:44:00.080Z,99784.44
2022-12-23T14:46:57.879Z,99794.25
2022-12-23T14:49:40.733Z,99787.91
2022-12-23T14:52:49.243Z,99781.63
2022-12-23T14:55:50.147Z,99770.94
2022-12-23T14:58:59.530Z,99765.69
2022-12-23T15:01:34.739Z,99762.09
2022-12-23T15:04:08.783Z,99757.63
2022-12-23T15:06:39.670Z,99757.56
2022-12-23T15:09:08.647Z,99768.25
2022-12-23T15:11:38.179Z,99763.78
2022-12-23T15:14:11.168Z,99752.22
2022-12-23T15:16:45.037Z,99745.03
2022-12-23T15:19:21.519Z,99751.19
2022-12-23T15:21:58.329Z,99763.69
2022-12-23T15:24:31.012Z,99769.03
2022-12-23T15:27:25.949Z,99767.22
2022-12-23T15:29:51.422Z,99757.53
2022-12-23T15:32:20.859Z,99753.16
2022-12-23T15:34:49.597Z,99754.94
2022-12-23T15:37:23.078Z,99748.66
2022-12-23T15:39:55.829Z,99756.63
2022-12-23T15:42:35.473Z,99751.31
2022-12-23T15:45:27.024Z,99748.66
2022-12-23T15:47:54.809Z,99746.84
2022-12-23T15:50:22.616Z,99748.28
2022-12-23T15:52:53.830Z,99761.38
2022-12-23T15:55:26.253Z,99757.69
2022-12-23T15:57:55.747Z,99757.59
2022-12-23T16:00:27.484Z,99770.03
2022-12-23T16:03:02.362Z,99767.34
2022-12-23T16:05:34.050Z,99754.81
2022-12-23T16:08:12.911Z,99766.28
2022-12-23T16:10:41.578Z,99768.91
2022-12-23T16:13:18.813Z,99767.97
2022-12-23T16:15:47.583Z,99767.06
2022-12-23T16:18:23.227Z,99767.09
2022-12-23T16:20:54.573Z,99765.25
2022-12-23T16:23:23.748Z,99765.16
2022-12-23T16:25:53.931Z,99774.03
2022-12-23T16:28:27.470Z,99778.41
2022-12-23T16:30:58.332Z,99770.28
2022-12-23T16:33:36.294Z,99778.28
2022-12-23T16:36:18.047Z,99787.91
2022-12-23T16:38:46.666Z,99790.56
2022-12-23T16:41:14.623Z,99786.06
2022-12-23T16:43:51.623Z,99788.66
2022-12-23T16:46:21.815Z,99784.25
2022-12-23T16:48:51.510Z,99771.63
2022-12-23T16:51:21.889Z,99784.03
2022-12-23T16:53:50.204Z,99792.81
2022-12-23T16:56:19.999Z,99801.75
2022-12-23T16:58:49.682Z,99806.19
2022-12-23T17:01:21.099Z,99808.81
2022-12-23T17:03:48.916Z,99809.66
2022-12-23T17:06:18.953Z,99808.72
2022-12-23T17:08:47.477Z,99814.09
2022-12-23T17:11:18.314Z,99811.44
2022-12-23T17:13:48.880Z,99813.16
2022-12-23T17:16:20.327Z,99821.16
2022-12-23T17:18:48.666Z,99834.44
2022-12-23T17:21:22.602Z,99825.50
2022-12-23T17:23:51.316Z,99830.91
2022-12-23T17:26:19.261Z,99840.72
2022-12-23T17:28:47.005Z,99840.72
2022-12-23T17:31:22.374Z,99844.13
2022-12-23T17:33:55.295Z,99853.84
2022-12-23T17:36:23.407Z,99856.41
2022-12-23T17:38:51.185Z,99849.16
2022-12-23T17:41:24.247Z,99866.94
2022-12-23T17:43:52.073Z,99873.13
2022-12-23T17:46:21.138Z,99882.00
2022-12-23T17:48:49.026Z,99876.44
2022-12-23T17:51:20.412Z,99882.50
2022-12-23T17:53:53.203Z,99883.22
2022-12-23T17:56:25.495Z,99882.25
2022-12-23T17:58:53.609Z,99876.09
2022-12-23T18:01:24.395Z,99890.28
2022-12-23T18:03:52.684Z,99890.34
2022-12-23T18:06:23.676Z,99884.84
2022-12-23T18:08:51.891Z,99886.75
2022-12-23T18:11:23.555Z,99892.97
2022-12-23T18:13:54.117Z,99900.97
2022-12-23T18:16:22.124Z,99905.50
2022-12-23T18:18:50.245Z,99907.31
2022-12-23T18:21:23.889Z,99910.81
2022-12-23T18:23:53.084Z,99915.25
2022-12-23T18:26:20.876Z,99912.78
2022-12-23T18:28:48.686Z,99911.81
2022-12-23T18:31:18.491Z,99920.78
2022-12-23T18:33:46.743Z,99924.47
2022-12-23T18:36:24.052Z,99948.63
2022-12-23T18:38:52.919Z,99951.22
2022-12-23T18:41:21.501Z,99948.56
2022-12-23T18:43:49.482Z,99951.28
2022-12-23T18:46:17.605Z,99961.06
2022-12-23T18:48:45.675Z,99954.97
2022-12-23T18:51:15.555Z,99960.47
2022-12-23T18:53:45.054Z,99957.13
2022-12-23T18:56:14.951Z,99961.63
2022-12-23T18:58:43.400Z,99971.41
2022-12-23T19:01:12.879Z,99973.19
2022-12-23T19:03:41.047Z,99973.13
2022-12-23T19:06:10.383Z,99972.19
2022-12-23T19:08:39.271Z,99971.25
2022-12-23T19:11:12.563Z,99978.25
2022-12-23T19:13:40.522Z,99984.66
2022-12-23T19:16:08.780Z,99990.03
2022-12-23T19:18:36.736Z,99990.94
2022-12-23T19:21:05.371Z,99997.16
2022-12-23T19:23:33.228Z,99999.78
2022-12-23T19:26:01.012Z,99993.56
2022-12-23T19:28:30.412Z,99993.50
2022-12-23T19:30:58.255Z,99989.03
2022-12-23T19:33:26.131Z,100000.69
2022-12-23T19:35:53.878Z,99984.75
2022-12-23T19:38:21.675Z,100001.69
2022-12-23T19:41:00.693Z,100001.66
2022-12-23T19:43:29.876Z,100005.91
2022-12-23T19:45:58.922Z,100003.22
2022-12-23T19:48:26.928Z,100016.63
2022-12-23T19:50:59.033Z,100011.28
2022-12-23T19:53:26.910Z,100022.88
2022-12-23T19:55:59.221Z,100021.13
2022-12-23T19:58:27.311Z,100031.09
2022-12-23T20:01:06.555Z,100034.59
2022-12-23T20:03:34.771Z,100036.38
2022-12-23T20:06:02.632Z,100039.97
2022-12-23T20:08:30.624Z,100043.53
2022-12-23T20:11:04.963Z,100042.75
2022-12-23T20:13:32.788Z,100055.06
2022-12-23T20:16:02.322Z,100054.22
2022-12-23T20:18:30.221Z,100059.63
2022-12-23T20:20:59.545Z,100067.66
2022-12-23T20:23:27.440Z,100073.91
2022-12-23T20:25:55.479Z,100080.91
2022-12-23T20:28:23.387Z,100088.00
2022-12-23T20:31:02.135Z,100090.66
2022-12-23T20:33:29.928Z,100091.56
2022-12-23T20:35:57.747Z,100094.25
2022-12-23T20:38:25.602Z,100098.66
2022-12-23T20:40:53.373Z,100106.59
2022-12-23T20:43:21.242Z,100104.91
2022-12-23T20:45:52.051Z,100108.53
2022-12-23T20:48:21.805Z,100104.97
2022-12-23T20:50:49.990Z,100121.03
2022-12-23T20:53:18.073Z,100119.31
2022-12-23T20:55:46.000Z,100120.13
2022-12-23T20:58:31.051Z,100126.47
2022-12-23T21:01:08.755Z,100124.81
2022-12-23T21:03:38.027Z,100137.31
2022-12-23T21:06:06.518Z,100138.19
2022-12-23T21:08:34.810Z,100140.91
2022-12-23T21:11:02.620Z,100141.84
2022-12-23T21:13:30.447Z,100159.00
2022-12-23T21:16:02.011Z,100157.38
2022-12-23T21:18:29.982Z,100164.53
2022-12-23T21:21:01.607Z,100158.38
2022-12-23T21:23:30.352Z,100154.91
2022-12-23T21:26:09.666Z,100168.38
2022-12-23T21:28:38.546Z,100169.41
2022-12-23T21:31:07.047Z,100168.63
2022-12-23T21:33:37.253Z,100174.81
2022-12-23T21:36:08.042Z,100176.56
2022-12-23T21:38:38.363Z,100174.84
2022-12-23T21:41:08.722Z,100194.41
2022-12-23T21:43:36.904Z,100191.66
2022-12-23T21:46:07.179Z,100187.28
2022-12-23T21:48:37.045Z,100183.53
2022-12-23T21:51:08.939Z,100205.88
2022-12-23T21:53:37.391Z,100197.84
2022-12-23T21:56:06.995Z,100197.84
2022-12-23T21:58:35.595Z,100212.13
2022-12-23T22:01:08.570Z,100218.38
2022-12-23T22:03:36.734Z,100218.41
2022-12-23T22:06:10.491Z,100231.81
2022-12-23T22:08:39.223Z,100231.81
2022-12-23T22:11:08.492Z,100239.78
2022-12-23T22:13:36.466Z,100238.91
2022-12-23T22:16:05.507Z,100251.44
2022-12-23T22:18:33.363Z,100247.06
2022-12-23T22:21:06.628Z,100251.53
2022-12-23T22:23:34.580Z,100254.16
2022-12-23T22:26:02.401Z,100271.97
2022-12-23T22:28:32.256Z,100265.75
2022-12-23T22:31:03.415Z,100255.91
2022-12-23T22:33:32.714Z,100265.66
2022-12-23T22:36:00.897Z,100263.94
2022-12-23T22:38:30.305Z,100268.41
2022-12-23T22:40:58.165Z,100272.91
2022-12-23T22:43:25.949Z,100284.56
2022-12-23T22:45:57.579Z,100278.31
2022-12-23T22:48:26.116Z,100276.44
2022-12-23T22:51:02.913Z,100298.72
2022-12-23T22:53:32.749Z,100303.06
2022-12-23T22:56:01.373Z,100305.75
2022-12-23T22:58:30.333Z,100319.31
2022-12-23T23:00:58.791Z,100312.16
2022-12-23T23:03:27.603Z,100326.47
2022-12-23T23:05:59.973Z,100328.34
2022-12-23T23:08:27.917Z,100324.66
2022-12-23T23:10:59.914Z,100334.53
2022-12-23T23:13:30.518Z,100332.75
2022-12-23T23:15:59.293Z,100337.25
2022-12-23T23:18:27.587Z,100332.72
2022-12-23T23:20:55.844Z,100339.78
2022-12-23T23:23:23.667Z,100338.06
2022-12-23T23:25:51.759Z,100348.59
2022-12-23T23:28:21.079Z,100354.03
2022-12-23T23:30:55.415Z,100358.44
2022-12-23T23:33:31.438Z,100368.38
2022-12-23T23:36:00.232Z,100360.38
2022-12-23T23:38:28.822Z,100363.91
2022-12-23T23:40:57.476Z,100368.38
2022-12-23T23:43:26.637Z,100363.03
2022-12-23T23:45:54.505Z,100357.72
2022-12-23T23:48:22.648Z,100377.38
2022-12-23T23:50:50.583Z,100388.09
2022-12-23T23:53:18.698Z,100380.03
2022-12-23T23:55:46.700Z,100392.56
2022-12-23T23:58:14.517Z,100397.03
